sensor_id;sensor_type;location;lat;lon;timestamp;pressure;altitude;pressure_sealevel;temperature;humidity
7966;BME280;4028;43.272;26.932;2024-03-23T00:53:44;99293.09;;;3.84;100.00
7966;BME280;4028;43.272;26.932;2024-03-23T00:56:10;99294.09;;;3.54;100.00
7966;BME280;4028;43.272;26.932;2024-03-23T00:58:35;99273.28;;;3.10;100.00
7966;BME280;4028;43.272;26.932;2024-03-23T01:01:01;99295.22;;;3.22;100.00
7966;BME280;4028;43.272;26.932;2024-03-23T01:03:29;99288.97;;;3.10;100.00
7966;BME280;4028;43.272;26.932;2024-03-23T01:05:54;99290.19;;;3.04;100.00
7966;BME280;4028;43.272;26.932;2024-03-23T01:08:20;99285.41;;;3.39;100.00
7966;BME280;4028;43.272;26.932;2024-03-23T01:10:58;99279.06;;;3.85;100.00
7966;BME280;4028;43.272;26.932;2024-03-23T01:13:25;99279.34;;;3.80;100.00
7966;BME280;4028;43.272;26.932;2024-03-23T01:15:54;99281.72;;;3.71;100.00
7966;BME280;4028;43.272;26.932;2024-03-23T01:18:21;99280.72;;;3.86;100.00
7966;BME280;4028;43.272;26.932;2024-03-23T01:20:47;99274.91;;;3.95;100.00
7966;BME280;4028;43.272;26.932;2024-03-23T01:23:13;99280.03;;;4.24;100.00
7966;BME280;4028;43.272;26.932;2024-03-23T01:25:39;99268.75;;;4.36;100.00
7966;BME280;4028;43.272;26.932;2024-03-23T01:28:05;99276.25;;;4.28;100.00
7966;BME280;4028;43.272;26.932;2024-03-23T01:30:32;99286.47;;;4.45;100.00
7966;BME280;4028;43.272;26.932;2024-03-23T01:32:57;99283.13;;;4.43;100.00
7966;BME280;4028;43.272;26.932;2024-03-23T01:35:23;99272.63;;;4.43;100.00
7966;BME280;4028;43.272;26.932;2024-03-23T01:37:48;99269.47;;;4.38;100.00
7966;BME280;4028;43.272;26.932;2024-03-23T01:40:16;99276.63;;;4.36;100.00
7966;BME280;4028;43.272;26.932;2024-03-23T01:42:41;99279.75;;;3.74;100.00
7966;BME280;4028;43.272;26.932;2024-03-23T01:45:07;99267.66;;;3.45;100.00
7966;BME280;4028;43.272;26.932;2024-03-23T01:47:34;99279.25;;;3.26;100.00
7966;BME280;4028;43.272;26.932;2024-03-23T01:49:59;99277.94;;;3.19;100.00
7966;BME280;4028;43.272;26.932;2024-03-23T01:52:26;99273.19;;;3.67;100.00
7966;BME280;4028;43.272;26.932;2024-03-23T01:54:52;99274.28;;;4.04;100.00
7966;BME280;4028;43.272;26.932;2024-03-23T01:57:19;99275.38;;;4.14;100.00
7966;BME280;4028;43.272;26.932;2024-03-23T01:59:46;99272.88;;;4.13;100.00
7966;BME280;4028;43.272;26.932;2024-03-23T02:02:12;99263.56;;;4.22;100.00
7966;BME280;4028;43.272;26.932;2024-03-23T02:04:37;99277.94;;;4.29;100.00
7966;BME280;4028;43.272;26.932;2024-03-23T02:07:03;99262.66;;;3.96;100.00
7966;BME280;4028;43.272;26.932;2024-03-23T02:09:30;99274.41;;;4.03;100.00
7966;BME280;4028;43.272;26.932;2024-03-23T02:11:57;99267.00;;;3.82;100.00
7966;BME280;4028;43.272;26.932;2024-03-23T02:14:22;99270.88;;;3.62;100.00
7966;BME280;4028;43.272;26.932;2024-03-23T02:16:48;99269.31;;;3.87;100.00
7966;BME280;4028;43.272;26.932;2024-03-23T02:19:13;99267.81;;;3.83;100.00
7966;BME280;4028;43.272;26.932;2024-03-23T02:21:38;99258.69;;;3.76;100.00
7966;BME280;4028;43.272;26.932;2024-03-23T02:24:04;99250.25;;;3.85;100.00
7966;BME280;4028;43.272;26.932;2024-03-23T02:26:30;99258.00;;;3.86;100.00
7966;BME280;4028;43.272;26.932;2024-03-23T02:28:55;99258.91;;;4.00;100.00
7966;BME280;4028;43.272;26.932;2024-03-23T02:31:20;99259.31;;;3.52;100.00
7966;BME280;4028;43.272;26.932;2024-03-23T02:33:46;99255.63;;;3.28;100.00
7966;BME280;4028;43.272;26.932;2024-03-23T02:36:11;99254.28;;;3.49;100.00
7966;BME280;4028;43.272;26.932;2024-03-23T02:38:37;99256.69;;;3.52;100.00
7966;BME280;4028;43.272;26.932;2024-03-23T02:41:03;99258.56;;;3.64;100.00
7966;BME280;4028;43.272;26.932;2024-03-23T02:43:29;99251.44;;;3.67;100.00
7966;BME280;4028;43.272;26.932;2024-03-23T02:45:54;99263.00;;;3.77;100.00
7966;BME280;4028;43.272;26.932;2024-03-23T02:48:20;99254.88;;;3.26;100.00
7966;BME280;4028;43.272;26.932;2024-03-23T02:50:45;99263.31;;;3.02;100.00
7966;BME280;4028;43.272;26.932;2024-03-23T02:53:11;99253.69;;;3.03;100.00
7966;BME280;4028;43.272;26.932;2024-03-23T02:55:36;99250.59;;;3.25;100.00
7966;BME280;4028;43.272;26.932;2024-03-23T02:58:02;99256.41;;;3.57;100.00
7966;BME280;4028;43.272;26.932;2024-03-23T03:00:28;99263.81;;;3.77;100.00
7966;BME280;4028;43.272;26.932;2024-03-23T03:02:54;99261.34;;;3.88;100.00
7966;BME280;4028;43.272;26.932;2024-03-23T03:05:19;99257.81;;;3.89;100.00
7966;BME280;4028;43.272;26.932;2024-03-23T03:07:45;99258.03;;;3.72;100.00
7966;BME280;4028;43.272;26.932;2024-03-23T03:10:10;99252.25;;;3.26;100.00
7966;BME280;4028;43.272;26.932;2024-03-23T03:12:37;99255.81;;;3.10;100.00
7966;BME280;4028;43.272;26.932;2024-03-23T03:15:06;99255.69;;;3.41;100.00
7966;BME280;4028;43.272;26.932;2024-03-23T03:17:31;99256.19;;;3.19;100.00
7966;BME280;4028;43.272;26.932;2024-03-23T03:19:57;99252.63;;;3.05;100.00
7966;BME280;4028;43.272;26.932;2024-03-23T03:22:22;99244.63;;;3.23;100.00
7966;BME280;4028;43.272;26.932;2024-03-23T03:24:48;99249.63;;;3.26;100.00
7966;BME280;4028;43.272;26.932;2024-03-23T03:27:13;99248.81;;;2.68;100.00
7966;BME280;4028;43.272;26.932;2024-03-23T03:29:39;99253.13;;;2.39;100.00
7966;BME280;4028;43.272;26.932;2024-03-23T03:32:05;99250.34;;;2.42;100.00
7966;BME280;4028;43.272;26.932;2024-03-23T03:34:30;99253.94;;;2.70;100.00
7966;BME280;4028;43.272;26.932;2024-03-23T03:36:57;99252.84;;;2.88;100.00
7966;BME280;4028;43.272;26.932;2024-03-23T03:39:23;99254.50;;;2.89;100.00
7966;BME280;4028;43.272;26.932;2024-03-23T03:41:49;99260.19;;;2.96;100.00
7966;BME280;4028;43.272;26.932;2024-03-23T03:44:14;99248.53;;;2.87;100.00
7966;BME280;4028;43.272;26.932;2024-03-23T03:46:40;99259.25;;;2.68;100.00
7966;BME280;4028;43.272;26.932;2024-03-23T03:49:05;99255.78;;;2.53;100.00
7966;BME280;4028;43.272;26.932;2024-03-23T03:51:31;99258.91;;;2.44;100.00
7966;BME280;4028;43.272;26.932;2024-03-23T03:53:56;99250.28;;;2.58;100.00
7966;BME280;4028;43.272;26.932;2024-03-23T03:56:22;99256.72;;;2.81;100.00
7966;BME280;4028;43.272;26.932;2024-03-23T03:58:48;99260.66;;;2.74;100.00
7966;BME280;4028;43.272;26.932;2024-03-23T04:01:13;99270.22;;;2.45;100.00
7966;BME280;4028;43.272;26.932;2024-03-23T04:03:39;99248.75;;;2.40;100.00
7966;BME280;4028;43.272;26.932;2024-03-23T04:06:09;99264.50;;;2.82;100.00
7966;BME280;4028;43.272;26.932;2024-03-23T04:08:35;99261.16;;;3.09;100.00
7966;BME280;4028;43.272;26.932;2024-03-23T04:11:01;99257.75;;;3.21;100.00
7966;BME280;4028;43.272;26.932;2024-03-23T04:13:26;99257.69;;;2.94;100.00
7966;BME280;4028;43.272;26.932;2024-03-23T04:15:55;99256.00;;;2.79;100.00
7966;BME280;4028;43.272;26.932;2024-03-23T04:18:21;99255.44;;;2.88;100.00
7966;BME280;4028;43.272;26.932;2024-03-23T04:20:48;99259.53;;;3.06;100.00
7966;BME280;4028;43.272;26.932;2024-03-23T04:23:13;99259.19;;;3.12;100.00
7966;BME280;4028;43.272;26.932;2024-03-23T04:25:39;99257.97;;;3.18;100.00
7966;BME280;4028;43.272;26.932;2024-03-23T04:28:04;99251.31;;;3.27;100.00
7966;BME280;4028;43.272;26.932;2024-03-23T04:30:30;99259.25;;;3.25;100.00
7966;BME280;4028;43.272;26.932;2024-03-23T04:32:57;99255.03;;;3.37;100.00
7966;BME280;4028;43.272;26.932;2024-03-23T04:35:24;99254.56;;;3.45;100.00
7966;BME280;4028;43.272;26.932;2024-03-23T04:37:50;99244.63;;;3.64;100.00
7966;BME280;4028;43.272;26.932;2024-03-23T04:40:18;99255.91;;;3.79;100.00
7966;BME280;4028;43.272;26.932;2024-03-23T04:42:44;99257.91;;;3.88;100.00
7966;BME280;4028;43.272;26.932;2024-03-23T04:45:09;99249.78;;;3.51;100.00
7966;BME280;4028;43.272;26.932;2024-03-23T04:47:37;99254.56;;;3.59;100.00
7966;BME280;4028;43.272;26.932;2024-03-23T04:50:03;99251.44;;;3.67;100.00
7966;BME280;4028;43.272;26.932;2024-03-23T04:52:29;99254.41;;;3.75;100.00
7966;BME280;4028;43.272;26.932;2024-03-23T04:54:55;99259.25;;;3.81;100.00
7966;BME280;4028;43.272;26.932;2024-03-23T04:57:21;99260.34;;;3.91;100.00
7966;BME280;4028;43.272;26.932;2024-03-23T04:59:46;99249.66;;;3.94;100.00
7966;BME280;4028;43.272;26.932;2024-03-23T05:02:12;99249.31;;;3.59;100.00
7966;BME280;4028;43.272;26.932;2024-03-23T05:04:38;99251.19;;;3.43;100.00
7966;BME280;4028;43.272;26.932;2024-03-23T05:07:04;99257.09;;;3.46;100.00
7966;BME280;4028;43.272;26.932;2024-03-23T05:09:32;99263.69;;;3.66;100.00
7966;BME280;4028;43.272;26.932;2024-03-23T05:12:01;99258.53;;;3.79;100.00
7966;BME280;4028;43.272;26.932;2024-03-23T05:14:27;99262.41;;;3.59;100.00
7966;BME280;4028;43.272;26.932;2024-03-23T05:16:53;99265.75;;;3.61;100.00
7966;BME280;4028;43.272;26.932;2024-03-23T05:19:18;99259.66;;;3.75;100.00
7966;BME280;4028;43.272;26.932;2024-03-23T05:21:44;99270.00;;;3.35;100.00
7966;BME280;4028;43.272;26.932;2024-03-23T05:24:10;99172.56;;;2.76;100.00
7966;BME280;4028;43.272;26.932;2024-03-23T05:26:35;99254.69;;;3.43;100.00
7966;BME280;4028;43.272;26.932;2024-03-23T05:29:01;99261.38;;;3.47;100.00
7966;BME280;4028;43.272;26.932;2024-03-23T05:31:28;99266.56;;;3.20;100.00
7966;BME280;4028;43.272;26.932;2024-03-23T05:33:55;99262.69;;;3.40;100.00
7966;BME280;4028;43.272;26.932;2024-03-23T05:36:21;99260.47;;;3.48;100.00
7966;BME280;4028;43.272;26.932;2024-03-23T05:38:47;99262.66;;;3.69;100.00
7966;BME280;4028;43.272;26.932;2024-03-23T05:41:13;99249.34;;;3.72;100.00
7966;BME280;4028;43.272;26.932;2024-03-23T05:43:38;99254.84;;;3.81;100.00
7966;BME280;4028;43.272;26.932;2024-03-23T05:46:04;99247.50;;;3.74;100.00
7966;BME280;4028;43.272;26.932;2024-03-23T05:48:31;99254.41;;;3.75;100.00
7966;BME280;4028;43.272;26.932;2024-03-23T05:50:57;99260.63;;;3.59;100.00
7966;BME280;4028;43.272;26.932;2024-03-23T05:53:23;99259.50;;;3.63;100.00
7966;BME280;4028;43.272;26.932;2024-03-23T05:55:49;99261.97;;;3.79;100.00
7966;BME280;4028;43.272;26.932;2024-03-23T05:58:16;99264.09;;;3.87;100.00
7966;BME280;4028;43.272;26.932;2024-03-23T06:00:41;99254.41;;;4.02;100.00
7966;BME280;4028;43.272;26.932;2024-03-23T06:03:07;99253.03;;;3.96;100.00
7966;BME280;4028;43.272;26.932;2024-03-23T06:05:33;99245.66;;;3.88;100.00
7966;BME280;4028;43.272;26.932;2024-03-23T06:07:59;99254.97;;;4.20;100.00
7966;BME280;4028;43.272;26.932;2024-03-23T06:10:24;99250.19;;;4.39;100.00
7966;BME280;4028;43.272;26.932;2024-03-23T06:12:49;99245.81;;;4.65;100.00
7966;BME280;4028;43.272;26.932;2024-03-23T06:15:18;99225.81;;;4.64;100.00
7966;BME280;4028;43.272;26.932;2024-03-23T06:17:44;99222.16;;;4.66;100.00
7966;BME280;4028;43.272;26.932;2024-03-23T06:20:09;99251.06;;;4.90;100.00
7966;BME280;4028;43.272;26.932;2024-03-23T06:22:35;99248.94;;;5.21;100.00
7966;BME280;4028;43.272;26.932;2024-03-23T06:25:01;99248.75;;;5.97;100.00
7966;BME280;4028;43.272;26.932;2024-03-23T06:27:27;99240.75;;;7.59;100.00
7966;BME280;4028;43.272;26.932;2024-03-23T06:29:52;99232.41;;;9.82;100.00
7966;BME280;4028;43.272;26.932;2024-03-23T06:32:18;99231.75;;;10.38;100.00
7966;BME280;4028;43.272;26.932;2024-03-23T06:34:44;99224.09;;;11.94;86.30
7966;BME280;4028;43.272;26.932;2024-03-23T06:37:10;99217.91;;;12.65;71.54
7966;BME280;4028;43.272;26.932;2024-03-23T06:39:36;99230.50;;;14.08;63.41
7966;BME280;4028;43.272;26.932;2024-03-23T06:42:02;99229.22;;;14.61;56.93
7966;BME280;4028;43.272;26.932;2024-03-23T06:44:28;99217.53;;;15.42;54.41
7966;BME280;4028;43.272;26.932;2024-03-23T06:46:53;99229.16;;;15.88;52.25
7966;BME280;4028;43.272;26.932;2024-03-23T06:49:18;99236.63;;;16.61;48.04
7966;BME280;4028;43.272;26.932;2024-03-23T06:51:45;99226.91;;;16.69;48.12
7966;BME280;4028;43.272;26.932;2024-03-23T06:54:11;99227.03;;;16.52;46.97
7966;BME280;4028;43.272;26.932;2024-03-23T06:56:36;99233.22;;;15.76;49.64
7966;BME280;4028;43.272;26.932;2024-03-23T06:59:02;99233.22;;;16.76;47.41
7966;BME280;4028;43.272;26.932;2024-03-23T07:01:27;99225.13;;;16.61;48.10
7966;BME280;4028;43.272;26.932;2024-03-23T07:03:54;99225.78;;;17.15;45.79
7966;BME280;4028;43.272;26.932;2024-03-23T07:06:20;99225.47;;;17.55;46.18
7966;BME280;4028;43.272;26.932;2024-03-23T07:08:45;99225.50;;;17.10;45.36
7966;BME280;4028;43.272;26.932;2024-03-23T07:11:11;99223.47;;;16.98;46.97
7966;BME280;4028;43.272;26.932;2024-03-23T07:13:36;99229.00;;;16.96;47.01
7966;BME280;4028;43.272;26.932;2024-03-23T07:16:02;99223.47;;;17.27;46.55
7966;BME280;4028;43.272;26.932;2024-03-23T07:18:27;99223.06;;;17.75;44.23
7966;BME280;4028;43.272;26.932;2024-03-23T07:20:54;99222.28;;;17.96;43.95
7966;BME280;4028;43.272;26.932;2024-03-23T07:23:19;99211.00;;;17.34;44.60
7966;BME280;4028;43.272;26.932;2024-03-23T07:25:45;99218.03;;;18.44;42.93
7966;BME280;4028;43.272;26.932;2024-03-23T07:28:10;99221.47;;;17.65;44.97
7966;BME280;4028;43.272;26.932;2024-03-23T07:30:36;99215.88;;;16.72;45.72
7966;BME280;4028;43.272;26.932;2024-03-23T07:33:01;99204.34;;;17.45;46.26
7966;BME280;4028;43.272;26.932;2024-03-23T07:35:27;99211.22;;;18.20;44.48
7966;BME280;4028;43.272;26.932;2024-03-23T07:37:52;99210.25;;;18.49;44.03
7966;BME280;4028;43.272;26.932;2024-03-23T07:40:18;99213.06;;;18.41;43.91
7966;BME280;4028;43.272;26.932;2024-03-23T07:42:43;99206.38;;;19.08;43.44
7966;BME280;4028;43.272;26.932;2024-03-23T07:45:09;99212.50;;;18.24;43.93
7966;BME280;4028;43.272;26.932;2024-03-23T07:47:35;99205.09;;;19.04;42.83
7966;BME280;4028;43.272;26.932;2024-03-23T07:50:01;99199.16;;;18.31;44.14
7966;BME280;4028;43.272;26.932;2024-03-23T07:52:29;99201.00;;;17.87;46.07
7966;BME280;4028;43.272;26.932;2024-03-23T07:54:55;99204.94;;;18.56;45.49
7966;BME280;4028;43.272;26.932;2024-03-23T07:57:20;99197.75;;;19.19;44.37
7966;BME280;4028;43.272;26.932;2024-03-23T07:59:46;99195.00;;;18.50;44.79
7966;BME280;4028;43.272;26.932;2024-03-23T08:02:12;99194.28;;;18.84;44.08
7966;BME280;4028;43.272;26.932;2024-03-23T08:04:37;99189.59;;;19.34;43.88
7966;BME280;4028;43.272;26.932;2024-03-23T08:07:03;99191.38;;;18.85;44.97
7966;BME280;4028;43.272;26.932;2024-03-23T08:09:28;99186.94;;;18.99;45.26
7966;BME280;4028;43.272;26.932;2024-03-23T08:11:54;99176.81;;;19.84;43.62
7966;BME280;4028;43.272;26.932;2024-03-23T08:14:19;99177.72;;;20.70;40.15
7966;BME280;4028;43.272;26.932;2024-03-23T08:17:04;99183.97;;;19.70;41.63
7966;BME280;4028;43.272;26.932;2024-03-23T08:19:29;99179.78;;;18.57;43.84
7966;BME280;4028;43.272;26.932;2024-03-23T08:21:55;99183.13;;;18.87;43.10
7966;BME280;4028;43.272;26.932;2024-03-23T08:24:20;99179.09;;;19.87;41.74
7966;BME280;4028;43.272;26.932;2024-03-23T08:26:46;99167.59;;;20.33;41.14
7966;BME280;4028;43.272;26.932;2024-03-23T08:29:12;99174.28;;;19.76;42.06
7966;BME280;4028;43.272;26.932;2024-03-23T08:31:37;99174.88;;;19.64;42.80
7966;BME280;4028;43.272;26.932;2024-03-23T08:34:02;99163.16;;;19.72;41.72
7966;BME280;4028;43.272;26.932;2024-03-23T08:36:28;99159.72;;;20.31;39.86
7966;BME280;4028;43.272;26.932;2024-03-23T08:38:54;99162.31;;;19.71;39.61
7966;BME280;4028;43.272;26.932;2024-03-23T08:41:20;99160.19;;;19.60;41.89
7966;BME280;4028;43.272;26.932;2024-03-23T08:43:45;99162.38;;;20.05;40.15
7966;BME280;4028;43.272;26.932;2024-03-23T08:46:15;99159.97;;;19.55;40.88
7966;BME280;4028;43.272;26.932;2024-03-23T08:48:43;99148.16;;;20.44;39.32
7966;BME280;4028;43.272;26.932;2024-03-23T08:51:10;99148.19;;;21.28;38.62
7966;BME280;4028;43.272;26.932;2024-03-23T08:53:37;99145.44;;;22.50;36.91
7966;BME280;4028;43.272;26.932;2024-03-23T08:56:04;99152.84;;;21.98;36.22
7966;BME280;4028;43.272;26.932;2024-03-23T08:58:31;99127.06;;;21.45;35.57
7966;BME280;4028;43.272;26.932;2024-03-23T09:01:09;99142.41;;;22.08;35.67
7966;BME280;4028;43.272;26.932;2024-03-23T09:03:35;99143.66;;;21.74;35.42
7966;BME280;4028;43.272;26.932;2024-03-23T09:06:02;99135.69;;;21.61;34.81
7966;BME280;4028;43.272;26.932;2024-03-23T09:08:31;99129.47;;;21.60;34.32
7966;BME280;4028;43.272;26.932;2024-03-23T09:10:57;99132.97;;;22.74;33.48
7966;BME280;4028;43.272;26.932;2024-03-23T09:13:22;99126.78;;;21.92;34.45
7966;BME280;4028;43.272;26.932;2024-03-23T09:15:51;99129.38;;;22.12;33.64
7966;BME280;4028;43.272;26.932;2024-03-23T09:18:19;99122.84;;;22.69;33.84
7966;BME280;4028;43.272;26.932;2024-03-23T09:20:45;99122.72;;;22.39;32.57
7966;BME280;4028;43.272;26.932;2024-03-23T09:23:10;99075.31;;;22.93;32.79
7966;BME280;4028;43.272;26.932;2024-03-23T09:25:37;99109.00;;;22.84;31.83
7966;BME280;4028;43.272;26.932;2024-03-23T09:28:03;99067.22;;;21.43;32.63
7966;BME280;4028;43.272;26.932;2024-03-23T09:30:28;99109.03;;;21.46;33.48
7966;BME280;4028;43.272;26.932;2024-03-23T09:32:54;99104.78;;;21.63;33.77
7966;BME280;4028;43.272;26.932;2024-03-23T09:35:19;99101.41;;;21.74;31.96
7966;BME280;4028;43.272;26.932;2024-03-23T09:37:45;99103.44;;;21.79;32.09
7966;BME280;4028;43.272;26.932;2024-03-23T09:40:11;99090.50;;;21.94;31.93
7966;BME280;4028;43.272;26.932;2024-03-23T09:42:37;99092.34;;;22.25;31.74
7966;BME280;4028;43.272;26.932;2024-03-23T09:45:05;99087.94;;;22.74;31.31
7966;BME280;4028;43.272;26.932;2024-03-23T09:47:32;99069.00;;;22.63;31.51
7966;BME280;4028;43.272;26.932;2024-03-23T09:49:59;99089.81;;;21.74;31.83
7966;BME280;4028;43.272;26.932;2024-03-23T09:52:25;99079.66;;;20.86;33.47
7966;BME280;4028;43.272;26.932;2024-03-23T09:54:51;99071.28;;;21.08;34.46
7966;BME280;4028;43.272;26.932;2024-03-23T09:57:16;99075.34;;;21.68;33.11
7966;BME280;4028;43.272;26.932;2024-03-23T09:59:42;99070.31;;;22.53;32.75
7966;BME280;4028;43.272;26.932;2024-03-23T10:02:08;99063.28;;;23.86;30.81
7966;BME280;4028;43.272;26.932;2024-03-23T10:04:39;99061.56;;;23.43;31.39
7966;BME280;4028;43.272;26.932;2024-03-23T10:07:15;99060.63;;;22.89;31.84
7966;BME280;4028;43.272;26.932;2024-03-23T10:09:44;99062.22;;;22.72;32.05
7966;BME280;4028;43.272;26.932;2024-03-23T10:12:15;99050.56;;;23.45;31.54
7966;BME280;4028;43.272;26.932;2024-03-23T10:14:40;99026.19;;;22.84;30.86
7966;BME280;4028;43.272;26.932;2024-03-23T10:17:20;99045.59;;;22.38;31.32
7966;BME280;4028;43.272;26.932;2024-03-23T10:19:50;99051.22;;;22.05;32.47
7966;BME280;4028;43.272;26.932;2024-03-23T10:22:21;99041.00;;;21.89;31.91
7966;BME280;4028;43.272;26.932;2024-03-23T10:24:47;99033.75;;;21.89;33.15
7966;BME280;4028;43.272;26.932;2024-03-23T10:27:20;99032.19;;;22.50;31.69
7966;BME280;4028;43.272;26.932;2024-03-23T10:29:46;99024.78;;;23.00;31.62
7966;BME280;4028;43.272;26.932;2024-03-23T10:32:13;99014.78;;;23.49;30.43
7966;BME280;4028;43.272;26.932;2024-03-23T10:34:40;99013.00;;;23.97;29.94
7966;BME280;4028;43.272;26.932;2024-03-23T10:37:06;99006.44;;;24.16;28.96
7966;BME280;4028;43.272;26.932;2024-03-23T10:39:39;99011.28;;;23.60;29.04
7966;BME280;4028;43.272;26.932;2024-03-23T10:42:06;99004.88;;;23.73;29.56
7966;BME280;4028;43.272;26.932;2024-03-23T10:44:33;98999.63;;;23.18;31.45
7966;BME280;4028;43.272;26.932;2024-03-23T10:46:59;98999.72;;;23.12;30.76
7966;BME280;4028;43.272;26.932;2024-03-23T10:49:31;98991.72;;;23.35;31.17
7966;BME280;4028;43.272;26.932;2024-03-23T10:51:59;98986.47;;;23.40;29.94
7966;BME280;4028;43.272;26.932;2024-03-23T10:54:25;98964.25;;;23.92;29.04
7966;BME280;4028;43.272;26.932;2024-03-23T10:57:17;98979.16;;;23.82;30.06
7966;BME280;4028;43.272;26.932;2024-03-23T10:59:41;98982.59;;;23.48;28.91
7966;BME280;4028;43.272;26.932;2024-03-23T11:02:07;98985.06;;;23.49;29.11
7966;BME280;4028;43.272;26.932;2024-03-23T11:04:43;98969.50;;;23.75;28.13
7966;BME280;4028;43.272;26.932;2024-03-23T11:09:50;98964.72;;;24.12;27.17
7966;BME280;4028;43.272;26.932;2024-03-23T11:12:28;98960.69;;;22.77;28.72
7966;BME280;4028;43.272;26.932;2024-03-23T11:17:27;98938.50;;;23.89;27.63
7966;BME280;4028;43.272;26.932;2024-03-23T11:20:03;98942.81;;;24.49;26.11
7966;BME280;4028;43.272;26.932;2024-03-23T11:27:44;98933.78;;;24.43;26.21
7966;BME280;4028;43.272;26.932;2024-03-23T11:30:24;98922.66;;;24.16;26.56
7966;BME280;4028;43.272;26.932;2024-03-23T11:32:51;98921.84;;;23.80;26.77
7966;BME280;4028;43.272;26.932;2024-03-23T11:35:26;98912.09;;;22.84;26.67
7966;BME280;4028;43.272;26.932;2024-03-23T11:38:04;98916.78;;;22.40;26.65
7966;BME280;4028;43.272;26.932;2024-03-23T11:40:30;98899.38;;;23.03;26.46
7966;BME280;4028;43.272;26.932;2024-03-23T11:42:58;98901.38;;;23.49;26.69
7966;BME280;4028;43.272;26.932;2024-03-23T11:45:24;98905.22;;;24.35;26.21
7966;BME280;4028;43.272;26.932;2024-03-23T11:50:33;98888.44;;;22.38;27.28
7966;BME280;4028;43.272;26.932;2024-03-23T11:55:55;98890.44;;;23.56;25.55
7966;BME280;4028;43.272;26.932;2024-03-23T11:58:22;98890.66;;;24.36;25.82
7966;BME280;4028;43.272;26.932;2024-03-23T12:00:59;98878.13;;;24.59;25.07
7966;BME280;4028;43.272;26.932;2024-03-23T12:03:26;98861.59;;;24.32;25.25
7966;BME280;4028;43.272;26.932;2024-03-23T12:05:58;98881.06;;;25.31;24.50
7966;BME280;4028;43.272;26.932;2024-03-23T12:08:36;98869.25;;;25.54;24.39
7966;BME280;4028;43.272;26.932;2024-03-23T12:11:12;98871.41;;;25.74;24.97
7966;BME280;4028;43.272;26.932;2024-03-23T12:13:40;98861.63;;;25.73;24.31
7966;BME280;4028;43.272;26.932;2024-03-23T12:16:11;98868.63;;;25.69;23.60
7966;BME280;4028;43.272;26.932;2024-03-23T12:21:03;98861.81;;;23.78;25.45
7966;BME280;4028;43.272;26.932;2024-03-23T12:23:29;98857.59;;;23.71;26.13
7966;BME280;4028;43.272;26.932;2024-03-23T12:25:54;98846.72;;;24.18;25.87
7966;BME280;4028;43.272;26.932;2024-03-23T12:28:20;98846.50;;;24.76;25.61
7966;BME280;4028;43.272;26.932;2024-03-23T12:30:46;98844.41;;;23.98;25.77
7966;BME280;4028;43.272;26.932;2024-03-23T12:33:11;98847.63;;;24.23;26.20
7966;BME280;4028;43.272;26.932;2024-03-23T12:35:37;98807.16;;;24.69;24.74
7966;BME280;4028;43.272;26.932;2024-03-23T12:38:02;98834.16;;;24.11;25.25
7966;BME280;4028;43.272;26.932;2024-03-23T12:40:28;98832.31;;;23.42;25.99
7966;BME280;4028;43.272;26.932;2024-03-23T12:42:54;98826.22;;;23.46;26.14
7966;BME280;4028;43.272;26.932;2024-03-23T12:45:20;98815.91;;;24.19;26.19
7966;BME280;4028;43.272;26.932;2024-03-23T12:47:45;98814.69;;;23.98;26.16
7966;BME280;4028;43.272;26.932;2024-03-23T12:50:11;98819.97;;;24.45;25.03
7966;BME280;4028;43.272;26.932;2024-03-23T12:52:37;98805.91;;;23.91;25.18
7966;BME280;4028;43.272;26.932;2024-03-23T12:55:03;98802.25;;;23.61;26.22
7966;BME280;4028;43.272;26.932;2024-03-23T12:57:31;98800.50;;;22.67;26.72
7966;BME280;4028;43.272;26.932;2024-03-23T12:59:56;98796.31;;;22.41;27.16
7966;BME280;4028;43.272;26.932;2024-03-23T13:02:22;98796.25;;;21.80;28.16
7966;BME280;4028;43.272;26.932;2024-03-23T13:04:54;98791.28;;;21.96;28.77
7966;BME280;4028;43.272;26.932;2024-03-23T13:07:21;98788.94;;;21.99;26.81
7966;BME280;4028;43.272;26.932;2024-03-23T13:09:47;98783.03;;;21.54;28.09
7966;BME280;4028;43.272;26.932;2024-03-23T13:12:12;98780.91;;;21.19;28.40
7966;BME280;4028;43.272;26.932;2024-03-23T13:14:41;98765.03;;;21.11;28.10
7966;BME280;4028;43.272;26.932;2024-03-23T13:17:07;98756.03;;;20.99;28.30
7966;BME280;4028;43.272;26.932;2024-03-23T13:19:33;98770.00;;;21.08;28.89
7966;BME280;4028;43.272;26.932;2024-03-23T13:22:00;98771.19;;;20.68;28.63
7966;BME280;4028;43.272;26.932;2024-03-23T13:24:29;98759.91;;;20.53;28.27
7966;BME280;4028;43.272;26.932;2024-03-23T13:26:56;98762.06;;;20.31;29.06
7966;BME280;4028;43.272;26.932;2024-03-23T13:29:22;98767.19;;;20.01;30.30
7966;BME280;4028;43.272;26.932;2024-03-23T13:31:49;98755.56;;;20.14;29.05
7966;BME280;4028;43.272;26.932;2024-03-23T13:34:15;98733.41;;;19.80;30.64
7966;BME280;4028;43.272;26.932;2024-03-23T13:36:42;98752.28;;;20.12;29.21
7966;BME280;4028;43.272;26.932;2024-03-23T13:39:07;98749.97;;;20.15;29.16
7966;BME280;4028;43.272;26.932;2024-03-23T13:41:45;98747.78;;;19.99;29.76
7966;BME280;4028;43.272;26.932;2024-03-23T13:44:12;98738.50;;;20.02;29.19
7966;BME280;4028;43.272;26.932;2024-03-23T13:46:41;98741.91;;;20.15;28.60
7966;BME280;4028;43.272;26.932;2024-03-23T13:49:30;98735.94;;;19.68;29.80
7966;BME280;4028;43.272;26.932;2024-03-23T13:51:57;98735.91;;;19.75;29.57
7966;BME280;4028;43.272;26.932;2024-03-23T13:54:25;98728.03;;;19.87;30.11
7966;BME280;4028;43.272;26.932;2024-03-23T13:56:52;98731.63;;;19.54;30.13
7966;BME280;4028;43.272;26.932;2024-03-23T13:59:18;98725.06;;;19.37;30.07
7966;BME280;4028;43.272;26.932;2024-03-23T14:01:44;98719.28;;;19.33;31.11
7966;BME280;4028;43.272;26.932;2024-03-23T14:04:11;98716.88;;;19.25;31.25
7966;BME280;4028;43.272;26.932;2024-03-23T14:06:36;98711.75;;;18.97;31.48
7966;BME280;4028;43.272;26.932;2024-03-23T14:09:02;98714.63;;;19.02;32.32
7966;BME280;4028;43.272;26.932;2024-03-23T14:11:29;98708.84;;;18.92;31.91
7966;BME280;4028;43.272;26.932;2024-03-23T14:13:55;98710.88;;;19.16;30.67
7966;BME280;4028;43.272;26.932;2024-03-23T14:16:20;98707.38;;;19.16;31.05
7966;BME280;4028;43.272;26.932;2024-03-23T14:18:48;98703.84;;;19.22;31.21